createdAt,value
2022-10-08T00:02:11.100Z,3.22
2022-10-08T00:04:41.708Z,3.22
2022-10-08T00:09:41.549Z,2.90
2022-10-08T00:12:11.997Z,3.25
2022-10-08T00:14:42.585Z,3.53
2022-10-08T00:17:12.966Z,3.58
2022-10-08T00:22:13.377Z,3.70
2022-10-08T00:24:43.932Z,3.50
2022-10-08T00:27:14.517Z,3.50
2022-10-08T00:29:46.163Z,3.03
2022-10-08T00:32:16.760Z,3.42
2022-10-08T00:34:48.451Z,3.35
2022-10-08T00:37:19.094Z,3.42
2022-10-08T00:39:49.563Z,4.00
2022-10-08T00:42:20.231Z,3.10
2022-10-08T00:44:57.201Z,4.13
2022-10-08T00:47:27.746Z,4.57
2022-10-08T00:50:01.242Z,5.78
2022-10-08T00:52:37.798Z,4.57
2022-10-08T00:57:40.673Z,4.95
2022-10-08T01:00:16.359Z,5.97
2022-10-08T01:02:47.717Z,5.07
2022-10-08T01:05:24.611Z,4.97
2022-10-08T01:10:43.954Z,2.72
2022-10-08T01:13:34.356Z,3.40
2022-10-08T01:16:09.252Z,2.55
2022-10-08T01:18:39.706Z,2.70
2022-10-08T01:21:37.021Z,3.38
2022-10-08T01:24:57.910Z,2.88
2022-10-08T01:27:48.550Z,2.25
2022-10-08T01:30:21.038Z,2.50
2022-10-08T01:33:13.719Z,2.60
2022-10-08T01:35:52.870Z,3.90
2022-10-08T01:38:26.515Z,3.38
2022-10-08T01:41:01.845Z,2.78
2022-10-08T01:43:46.736Z,2.75
2022-10-08T01:46:31.497Z,2.10
2022-10-08T01:49:09.476Z,2.60
2022-10-08T01:51:55.666Z,2.28
2022-10-08T01:54:30.296Z,2.60
2022-10-08T01:57:04.293Z,1.98
2022-10-08T01:59:52.834Z,2.45
2022-10-08T02:02:27.896Z,1.95
2022-10-08T02:04:58.677Z,2.45
2022-10-08T02:07:44.323Z,2.70
2022-10-08T02:10:23.224Z,2.17
2022-10-08T02:12:53.763Z,2.45
2022-10-08T02:15:37.261Z,2.42
2022-10-08T02:18:09.326Z,1.75
2022-10-08T02:20:46.189Z,1.50
2022-10-08T02:23:44.919Z,1.33
2022-10-08T02:26:23.586Z,1.60
2022-10-08T02:29:00.443Z,1.58
2022-10-08T02:31:57.866Z,2.05
2022-10-08T02:34:39.284Z,1.27
2022-10-08T02:37:37.309Z,1.50
2022-10-08T02:40:13.177Z,1.60
2022-10-08T02:42:48.409Z,2.05
2022-10-08T02:45:26.414Z,2.10
2022-10-08T02:48:02.544Z,1.70
2022-10-08T02:50:34.905Z,1.58
2022-10-08T02:53:05.975Z,1.80
2022-10-08T02:55:48.612Z,1.73
2022-10-08T02:58:19.671Z,1.77
2022-10-08T03:00:54.497Z,1.55
2022-10-08T03:03:49.934Z,2.50
2022-10-08T03:06:20.668Z,2.40
2022-10-08T03:08:51.808Z,2.20
2022-10-08T03:11:22.633Z,1.75
2022-10-08T03:13:58.912Z,1.90
2022-10-08T03:16:39.382Z,1.67
2022-10-08T03:19:12.114Z,2.35
2022-10-08T03:21:45.649Z,2.05
2022-10-08T03:24:17.024Z,2.25
2022-10-08T03:26:47.598Z,2.08
2022-10-08T03:29:18.166Z,2.15
2022-10-08T03:31:52.441Z,3.08
2022-10-08T03:34:24.345Z,2.20
2022-10-08T03:36:54.733Z,1.90
2022-10-08T03:39:25.285Z,2.15
2022-10-08T03:41:55.763Z,2.45
2022-10-08T03:46:55.819Z,2.00
2022-10-08T03:49:26.710Z,2.10
2022-10-08T03:51:57.102Z,2.05
2022-10-08T03:54:27.568Z,2.42
2022-10-08T03:59:27.719Z,2.00
2022-10-08T04:04:28.291Z,1.45
2022-10-08T04:06:59.000Z,2.33
2022-10-08T04:09:29.501Z,2.30
2022-10-08T04:11:59.857Z,1.70
2022-10-08T04:14:30.323Z,2.33
2022-10-08T04:19:30.814Z,2.30
2022-10-08T04:24:30.819Z,3.20
2022-10-08T04:29:31.224Z,4.63
2022-10-08T04:34:31.570Z,4.88
2022-10-08T04:53:07.666Z,4.60
2022-10-08T04:55:38.017Z,4.10
2022-10-08T04:58:08.350Z,4.97
2022-10-08T05:00:38.705Z,4.10
2022-10-08T05:03:09.641Z,3.50
2022-10-08T05:05:44.201Z,4.75
2022-10-08T05:08:15.447Z,4.85
2022-10-08T05:10:54.346Z,3.92
2022-10-08T05:13:24.989Z,3.28
2022-10-08T05:15:55.752Z,4.13
2022-10-08T05:18:26.286Z,3.17
2022-10-08T05:20:56.630Z,4.05
2022-10-08T05:23:27.367Z,4.22
2022-10-08T05:25:57.828Z,3.10
2022-10-08T05:28:28.101Z,3.58
2022-10-08T05:33:32.010Z,4.03
2022-10-08T05:36:08.396Z,4.32
2022-10-08T05:38:39.064Z,3.20
2022-10-08T05:41:15.389Z,2.80
2022-10-08T05:43:46.594Z,4.07
2022-10-08T05:46:18.165Z,3.63
2022-10-08T05:48:49.053Z,2.88
2022-10-08T05:51:19.875Z,2.72
2022-10-08T05:53:52.975Z,3.58
2022-10-08T05:56:25.385Z,3.20
2022-10-08T05:58:56.540Z,2.80
2022-10-08T06:01:32.826Z,2.25
2022-10-08T06:04:09.078Z,2.58
2022-10-08T06:06:42.017Z,2.58
2022-10-08T06:09:17.966Z,2.88
2022-10-08T06:11:49.007Z,2.88
2022-10-08T06:14:21.580Z,2.58
2022-10-08T06:16:51.990Z,2.67
2022-10-08T06:19:22.500Z,2.42
2022-10-08T06:24:23.039Z,2.30
2022-10-08T06:26:53.647Z,2.50
2022-10-08T06:29:24.024Z,2.38
2022-10-08T06:31:54.827Z,2.58
2022-10-08T06:34:25.902Z,2.17
2022-10-08T06:36:56.296Z,2.08
2022-10-08T06:39:26.624Z,2.28
2022-10-08T06:41:56.845Z,2.20
2022-10-08T06:44:27.252Z,1.98
2022-10-08T06:49:28.214Z,2.00
2022-10-08T06:51:58.668Z,1.70
2022-10-08T06:54:29.202Z,2.00
2022-10-08T06:57:00.011Z,2.30
2022-10-08T07:02:02.923Z,2.30
2022-10-08T07:04:33.793Z,2.65
2022-10-08T07:07:04.160Z,1.80
2022-10-08T07:09:34.532Z,3.17
2022-10-08T07:12:04.685Z,2.65
2022-10-08T07:14:35.102Z,2.47
2022-10-08T07:17:05.621Z,1.90
2022-10-08T07:19:36.061Z,2.55
2022-10-08T07:22:06.399Z,1.98
2022-10-08T07:24:36.773Z,1.92
2022-10-08T07:27:07.192Z,2.42
2022-10-08T07:29:37.877Z,2.45
2022-10-08T07:32:08.244Z,2.30
2022-10-08T07:34:38.969Z,2.33
2022-10-08T07:37:09.322Z,2.13
2022-10-08T07:39:39.920Z,2.80
2022-10-08T07:42:10.200Z,2.55
2022-10-08T07:44:40.658Z,2.63
2022-10-08T07:47:11.363Z,2.60
2022-10-08T07:49:41.830Z,1.58
2022-10-08T07:52:11.996Z,2.03
2022-10-08T07:54:43.953Z,1.60
2022-10-08T07:57:14.425Z,1.23
2022-10-08T07:59:44.832Z,1.38
2022-10-08T08:02:15.230Z,1.80
2022-10-08T08:04:46.049Z,1.65
2022-10-08T08:07:16.374Z,1.17
2022-10-08T08:09:46.857Z,1.55
2022-10-08T08:12:17.159Z,1.15
2022-10-08T08:14:47.507Z,1.15
2022-10-08T08:17:17.811Z,1.48
2022-10-08T08:19:48.164Z,1.05
2022-10-08T08:22:18.489Z,0.82
2022-10-08T08:24:48.944Z,1.13
2022-10-08T08:27:20.118Z,1.02
2022-10-08T08:29:51.546Z,1.10
2022-10-08T08:32:27.568Z,1.15
2022-10-08T08:34:58.886Z,1.10
2022-10-08T08:37:29.235Z,1.08
2022-10-08T08:39:59.786Z,0.93
2022-10-08T08:42:39.156Z,0.82
2022-10-08T08:45:45.383Z,1.10
2022-10-08T08:48:24.518Z,1.05
2022-10-08T08:51:00.160Z,0.90
2022-10-08T08:53:30.574Z,0.93
2022-10-08T08:56:04.514Z,1.23
2022-10-08T08:58:46.433Z,1.30
2022-10-08T09:01:32.400Z,1.20
2022-10-08T09:04:13.213Z,1.10
2022-10-08T09:06:45.155Z,0.85
2022-10-08T09:09:34.137Z,0.80
2022-10-08T09:12:28.889Z,0.88
2022-10-08T09:15:02.901Z,1.00
2022-10-08T09:17:40.504Z,0.90
2022-10-08T09:20:16.714Z,1.02
2022-10-08T09:22:47.893Z,0.60
2022-10-08T09:25:22.132Z,1.10
2022-10-08T09:27:55.115Z,0.90
2022-10-08T09:30:42.965Z,1.08
2022-10-08T09:33:19.991Z,1.02
2022-10-08T09:35:53.239Z,0.90
2022-10-08T09:38:27.989Z,1.15
2022-10-08T09:41:34.373Z,1.50
2022-10-08T09:44:24.816Z,1.02
2022-10-08T09:47:07.612Z,1.35
2022-10-08T09:49:41.849Z,0.80
2022-10-08T09:52:22.565Z,1.13
2022-10-08T09:55:12.738Z,1.10
2022-10-08T09:57:50.028Z,1.45
2022-10-08T10:00:40.701Z,1.05
2022-10-08T10:03:19.248Z,1.23
2022-10-08T10:05:54.264Z,1.10
2022-10-08T10:09:22.890Z,1.50
2022-10-08T10:12:06.630Z,1.40
2022-10-08T10:14:53.288Z,1.33
2022-10-08T10:17:32.673Z,1.75
2022-10-08T10:20:15.032Z,1.20
2022-10-08T10:23:21.864Z,1.83
2022-10-08T10:25:52.174Z,1.13
2022-10-08T10:28:36.361Z,1.23
2022-10-08T10:31:15.586Z,1.20
2022-10-08T10:34:15.430Z,0.95
2022-10-08T10:36:55.775Z,0.88
2022-10-08T10:39:39.846Z,0.95
2022-10-08T10:42:23.516Z,0.93
2022-10-08T10:44:59.126Z,0.90
2022-10-08T10:47:33.917Z,0.80
2022-10-08T10:50:04.949Z,0.80
2022-10-08T10:52:38.057Z,1.15
2022-10-08T10:55:26.915Z,1.65
2022-10-08T10:58:00.526Z,0.93
2022-10-08T11:00:49.284Z,0.80
2022-10-08T11:03:38.066Z,1.08
2022-10-08T11:06:44.668Z,0.93
2022-10-08T11:09:27.172Z,0.77
2022-10-08T11:12:01.971Z,1.13
2022-10-08T11:14:50.697Z,1.05
2022-10-08T11:17:47.308Z,1.00
2022-10-08T11:20:39.490Z,1.73
2022-10-08T11:23:17.928Z,0.90
2022-10-08T11:26:16.502Z,0.93
2022-10-08T11:28:52.944Z,1.02
2022-10-08T11:31:32.616Z,1.60
2022-10-08T11:34:05.267Z,1.20
2022-10-08T11:36:54.540Z,2.05
2022-10-08T11:39:38.047Z,2.53
2022-10-08T11:42:29.512Z,2.15
2022-10-08T11:45:25.614Z,2.20
2022-10-08T11:47:58.862Z,2.33
2022-10-08T11:50:38.205Z,1.88
2022-10-08T11:53:24.056Z,1.25
2022-10-08T11:56:00.737Z,1.17
2022-10-08T12:01:10.794Z,1.05
2022-10-08T12:03:44.679Z,1.38
2022-10-08T12:06:25.432Z,1.00
2022-10-08T12:09:01.460Z,0.80
2022-10-08T12:11:36.644Z,0.98
2022-10-08T12:14:15.968Z,1.10
2022-10-08T12:16:58.817Z,0.70
2022-10-08T12:22:18.131Z,0.52
2022-10-08T12:24:50.579Z,0.80
2022-10-08T12:27:24.034Z,0.57
2022-10-08T12:30:14.991Z,0.30
2022-10-08T12:32:45.647Z,0.80
2022-10-08T12:35:30.191Z,0.68
2022-10-08T12:38:21.705Z,0.73
2022-10-08T12:41:26.891Z,0.70
2022-10-08T12:44:30.767Z,0.80
2022-10-08T12:47:30.908Z,0.57
2022-10-08T12:50:24.347Z,0.50
2022-10-08T12:52:55.581Z,0.60
2022-10-08T12:55:26.418Z,0.77
2022-10-08T12:57:57.038Z,0.70
2022-10-08T13:00:34.718Z,0.52
2022-10-08T13:03:17.702Z,0.88
2022-10-08T13:05:51.625Z,0.80
2022-10-08T13:08:39.192Z,1.05
2022-10-08T13:11:17.538Z,0.70
2022-10-08T13:13:52.716Z,0.63
2022-10-08T13:16:29.842Z,0.98
2022-10-08T13:19:00.508Z,0.80
2022-10-08T13:21:33.868Z,0.63
2022-10-08T13:24:26.594Z,0.52
2022-10-08T13:26:58.166Z,0.57
2022-10-08T13:29:36.560Z,0.50
2022-10-08T13:32:15.927Z,0.63
2022-10-08T13:34:58.814Z,0.60
2022-10-08T13:37:32.273Z,0.50
2022-10-08T13:40:13.232Z,0.85
2022-10-08T13:43:03.869Z,0.43
2022-10-08T13:45:40.579Z,0.50
2022-10-08T13:48:15.547Z,0.55
2022-10-08T13:50:53.149Z,0.90
2022-10-08T13:53:26.382Z,1.00
2022-10-08T13:55:56.746Z,0.55
2022-10-08T13:58:27.344Z,0.80
2022-10-08T14:00:57.857Z,0.65
2022-10-08T14:03:28.307Z,1.05
2022-10-08T14:05:59.445Z,0.43
2022-10-08T14:08:32.728Z,0.88
2022-10-08T14:11:03.178Z,0.93
2022-10-08T14:13:33.598Z,0.80
2022-10-08T14:16:04.024Z,0.60
2022-10-08T14:18:34.456Z,0.80
2022-10-08T14:21:05.498Z,0.63
2022-10-08T14:23:35.957Z,0.80
2022-10-08T14:26:06.405Z,1.00
2022-10-08T14:28:37.330Z,0.60
2022-10-08T14:31:08.731Z,0.90
2022-10-08T14:33:39.199Z,0.88
2022-10-08T14:36:18.666Z,1.02
2022-10-08T14:38:49.680Z,0.73
2022-10-08T14:41:20.076Z,0.85
2022-10-08T14:43:50.671Z,0.80
2022-10-08T14:46:21.022Z,0.90
2022-10-08T14:48:51.405Z,1.30
2022-10-08T14:51:22.044Z,1.10
2022-10-08T14:53:54.593Z,0.57
2022-10-08T14:56:24.898Z,0.80
2022-10-08T14:58:55.320Z,0.77
2022-10-08T15:01:25.738Z,0.95
2022-10-08T15:03:56.327Z,0.90
2022-10-08T15:06:26.869Z,0.77
2022-10-08T15:08:57.207Z,0.98
2022-10-08T15:11:27.702Z,0.50
2022-10-08T15:13:58.466Z,0.85
2022-10-08T15:16:28.908Z,0.80
2022-10-08T15:18:59.456Z,0.80
2022-10-08T15:21:29.776Z,0.77
2022-10-08T15:24:00.201Z,0.60
2022-10-08T15:26:30.724Z,0.50
2022-10-08T15:29:02.372Z,0.50
2022-10-08T15:31:33.050Z,0.85
2022-10-08T15:34:03.539Z,0.43
2022-10-08T15:36:40.057Z,0.77
2022-10-08T15:39:14.710Z,0.68
2022-10-08T15:41:47.920Z,0.70
2022-10-08T15:44:25.981Z,0.65
2022-10-08T15:47:05.698Z,0.68
2022-10-08T15:49:39.550Z,0.63
2022-10-08T15:52:13.857Z,0.57
2022-10-08T15:54:44.940Z,0.52
2022-10-08T15:57:17.360Z,0.65
2022-10-08T15:59:48.045Z,0.60
2022-10-08T16:02:18.781Z,0.50
2022-10-08T16:04:49.764Z,0.70
2022-10-08T16:07:20.235Z,0.57
2022-10-08T16:09:51.236Z,0.60
2022-10-08T16:12:21.630Z,0.80
2022-10-08T16:14:52.134Z,0.80
2022-10-08T16:17:27.738Z,1.08
2022-10-08T16:19:58.046Z,0.80
2022-10-08T16:22:28.426Z,0.70
2022-10-08T16:24:58.821Z,0.32
2022-10-08T16:27:29.223Z,0.70
2022-10-08T16:30:00.064Z,0.65
2022-10-08T16:32:30.516Z,0.60
2022-10-08T16:35:00.951Z,0.82
2022-10-08T16:37:31.348Z,0.90
2022-10-08T16:40:05.226Z,0.47
2022-10-08T16:42:35.624Z,0.52
2022-10-08T16:45:06.315Z,0.65
2022-10-08T16:47:36.797Z,1.00
2022-10-08T16:50:07.819Z,0.70
2022-10-08T16:52:38.625Z,0.60
2022-10-08T16:55:09.248Z,0.70
2022-10-08T16:57:39.615Z,0.60
2022-10-08T17:00:10.421Z,0.55
2022-10-08T17:02:40.929Z,0.68
2022-10-08T17:05:11.309Z,0.60
2022-10-08T17:07:41.788Z,0.60
2022-10-08T17:10:14.185Z,0.65
2022-10-08T17:12:44.925Z,0.60
2022-10-08T17:15:15.510Z,0.77
2022-10-08T17:17:45.977Z,0.57
2022-10-08T17:20:16.387Z,0.50
2022-10-08T17:22:46.931Z,0.68
2022-10-08T17:25:17.747Z,1.00
2022-10-08T17:27:48.418Z,0.50
2022-10-08T17:30:19.574Z,0.55
2022-10-08T17:32:50.276Z,0.70
2022-10-08T17:35:20.857Z,0.88
2022-10-08T17:37:51.310Z,0.52
2022-10-08T17:40:21.673Z,0.55
2022-10-08T17:42:52.017Z,0.60
2022-10-08T17:45:23.590Z,0.90
2022-10-08T17:47:54.036Z,0.50
2022-10-08T17:50:24.652Z,0.32
2022-10-08T17:52:56.416Z,0.60
2022-10-08T17:55:27.398Z,0.77
2022-10-08T17:57:57.594Z,0.52
2022-10-08T18:00:28.922Z,0.60
2022-10-08T18:02:59.362Z,0.52
2022-10-08T18:05:30.303Z,0.50
2022-10-08T18:08:01.176Z,0.70
2022-10-08T18:10:31.841Z,0.47
2022-10-08T18:13:03.425Z,0.57
2022-10-08T18:15:38.009Z,0.45
2022-10-08T18:18:09.437Z,0.70
2022-10-08T18:20:40.884Z,0.70
2022-10-08T18:23:13.418Z,0.80
2022-10-08T18:25:43.990Z,0.50
2022-10-08T18:28:14.668Z,0.45
2022-10-08T18:30:45.582Z,0.50
2022-10-08T18:33:17.168Z,0.60
2022-10-08T18:35:47.853Z,0.52
2022-10-08T18:38:18.239Z,0.80
2022-10-08T18:40:48.655Z,0.80
2022-10-08T18:43:18.944Z,0.47
2022-10-08T18:45:49.502Z,0.60
2022-10-08T18:48:19.760Z,0.80
2022-10-08T18:50:50.095Z,0.65
2022-10-08T18:53:20.578Z,0.50
2022-10-08T18:55:51.608Z,0.80
2022-10-08T18:58:21.949Z,1.33
2022-10-08T19:00:52.495Z,0.93
2022-10-08T19:03:23.619Z,0.63
2022-10-08T19:05:54.788Z,0.68
2022-10-08T19:08:25.088Z,0.70
2022-10-08T19:10:55.672Z,0.75
2022-10-08T19:13:26.069Z,1.00
2022-10-08T19:15:56.788Z,0.80
2022-10-08T19:18:27.043Z,0.63
2022-10-08T19:20:57.613Z,1.27
2022-10-08T19:23:27.929Z,1.05
2022-10-08T19:25:58.349Z,0.80
2022-10-08T19:28:28.618Z,0.55
2022-10-08T19:30:59.513Z,0.80
2022-10-08T19:33:30.040Z,0.40
2022-10-08T19:36:02.782Z,0.52
2022-10-08T19:38:33.700Z,1.02
2022-10-08T19:41:08.871Z,0.50
2022-10-08T19:43:39.435Z,0.88
2022-10-08T19:46:10.108Z,0.80
2022-10-08T19:48:40.639Z,0.70
2022-10-08T19:51:13.462Z,1.17
2022-10-08T19:53:43.915Z,0.73
2022-10-08T19:56:15.865Z,0.93
2022-10-08T19:58:48.852Z,1.10
2022-10-08T20:01:22.917Z,1.00
2022-10-08T20:04:01.381Z,0.80
2022-10-08T20:06:34.099Z,0.80
2022-10-08T20:09:05.801Z,0.57
2022-10-08T20:11:36.328Z,0.70
2022-10-08T20:14:07.137Z,0.65
2022-10-08T20:16:43.119Z,0.77
2022-10-08T20:19:22.135Z,0.40
2022-10-08T20:21:53.329Z,0.68
2022-10-08T20:24:23.886Z,0.50
2022-10-08T20:26:54.976Z,0.75
2022-10-08T20:29:30.693Z,0.60
2022-10-08T20:32:02.495Z,0.75
2022-10-08T20:34:33.210Z,0.90
2022-10-08T20:37:03.869Z,0.47
2022-10-08T20:39:34.738Z,0.68
2022-10-08T20:42:05.452Z,0.65
2022-10-08T20:44:36.121Z,0.45
2022-10-08T20:47:06.973Z,0.45
2022-10-08T20:49:37.506Z,0.93
2022-10-08T20:52:08.275Z,0.77
2022-10-08T20:54:38.719Z,0.50
2022-10-08T20:57:09.411Z,1.50
2022-10-08T20:59:39.746Z,0.75
2022-10-08T21:02:12.220Z,0.73
2022-10-08T21:04:43.377Z,0.80
2022-10-08T21:07:13.703Z,1.00
2022-10-08T21:09:46.133Z,0.80
2022-10-08T21:12:16.850Z,0.73
2022-10-08T21:14:47.262Z,1.10
2022-10-08T21:17:17.839Z,0.85
2022-10-08T21:19:48.208Z,0.40
2022-10-08T21:22:18.777Z,0.85
2022-10-08T21:24:48.982Z,0.82
2022-10-08T21:27:19.461Z,0.88
2022-10-08T21:29:50.009Z,0.60
2022-10-08T21:32:20.921Z,0.80
2022-10-08T21:34:51.431Z,1.27
2022-10-08T21:37:22.093Z,1.05
2022-10-08T21:39:53.666Z,1.00
2022-10-08T21:42:24.243Z,1.25
2022-10-08T21:44:54.645Z,1.05
2022-10-08T21:47:25.097Z,1.25
2022-10-08T21:49:55.496Z,1.13
2022-10-08T21:52:26.187Z,1.15
2022-10-08T21:54:56.622Z,0.90
2022-10-08T21:57:27.100Z,1.20
2022-10-08T21:59:57.475Z,1.13
2022-10-08T22:02:27.883Z,0.77
2022-10-08T22:04:58.473Z,1.10
2022-10-08T22:07:28.867Z,1.10
2022-10-08T22:09:59.200Z,1.00
2022-10-08T22:12:29.655Z,1.27
2022-10-08T22:15:00.104Z,1.35
2022-10-08T22:17:30.681Z,1.00
2022-10-08T22:20:01.141Z,1.30
2022-10-08T22:22:31.847Z,1.15
2022-10-08T22:25:02.287Z,0.90
2022-10-08T22:27:32.734Z,1.13
2022-10-08T22:30:03.207Z,1.85
2022-10-08T22:32:34.344Z,2.13
2022-10-08T22:35:04.698Z,1.48
2022-10-08T22:37:35.200Z,1.70
2022-10-08T22:40:05.805Z,2.10
2022-10-08T22:42:36.123Z,1.80
2022-10-08T22:45:06.868Z,13.85
2022-10-08T22:47:37.912Z,6.30
2022-10-08T22:50:10.014Z,4.85
2022-10-08T22:52:40.531Z,5.20
2022-10-08T22:55:11.103Z,2.90
2022-10-08T22:57:42.409Z,2.45
2022-10-08T23:00:13.608Z,2.20
2022-10-08T23:02:43.943Z,2.42
2022-10-08T23:05:14.451Z,2.50
2022-10-08T23:07:44.955Z,2.42
2022-10-08T23:10:15.570Z,2.35
2022-10-08T23:12:46.226Z,2.47
2022-10-08T23:15:16.893Z,1.90
2022-10-08T23:17:47.372Z,2.28
2022-10-08T23:20:17.791Z,1.83
2022-10-08T23:22:48.517Z,2.13
2022-10-08T23:25:19.139Z,2.10
2022-10-08T23:27:49.751Z,2.22
2022-10-08T23:30:41.511Z,1.75
2022-10-08T23:33:11.334Z,1.70
2022-10-08T23:35:41.783Z,1.77
2022-10-08T23:38:12.451Z,1.63
2022-10-08T23:40:42.989Z,2.08
2022-10-08T23:43:13.481Z,2.35
2022-10-08T23:45:43.992Z,3.30
2022-10-08T23:48:14.555Z,3.13
2022-10-08T23:51:03.056Z,2.80
2022-10-08T23:53:34.162Z,3.65
2022-10-08T23:56:04.959Z,6.40
2022-10-08T23:58:35.638Z,5.93
